Time;durP1;ratioP1;P1;durP2;ratioP2;P2;SDS_P1;SDS_P2;PMS_P1;PMS_P2;Temp;Humidity;BMP_temperature;BMP_pressure;BME280_temperature;BME280_humidity;BME280_pressure;Samples;Min_cycle;Max_cycle;Signal;HPM_P1;HPM_P2
2023/01/12 00:03:16;;;;;;;14.87;9.07;;;;;;;6.72;100.00;100377.72;5126867;56;1140910;-74
2023/01/12 00:08:22;;;;;;;12.17;8.80;;;;;;;6.73;100.00;100378.91;5077709;56;1141030;-73
2023/01/12 00:13:33;;;;;;;13.03;8.50;;;;;;;6.78;100.00;100385.19;4909035;58;1140991;-68
2023/01/12 00:18:39;;;;;;;14.43;8.30;;;;;;;6.80;100.00;100384.62;4948539;58;1140926;-68
2023/01/12 00:23:46;;;;;;;9.93;8.48;;;;;;;6.83;100.00;100392.32;4958743;58;1141057;-67
2023/01/12 00:28:53;;;;;;;14.40;8.60;;;;;;;6.83;100.00;100398.89;4978283;57;1138857;-73
2023/01/12 00:33:59;;;;;;;8.67;7.77;;;;;;;6.84;100.00;100400.11;4959015;58;1141025;-71
2023/01/12 00:39:05;;;;;;;12.30;8.90;;;;;;;6.86;100.00;100406.13;5023289;57;1138772;-69
2023/01/12 00:49:35;;;;;;;6.85;5.87;;;;;;;6.88;100.00;100410.78;4958871;58;1140739;-72
2023/01/12 00:54:41;;;;;;;8.30;6.80;;;;;;;6.87;100.00;100414.38;4959108;58;1138889;-71
2023/01/12 00:59:47;;;;;;;11.30;6.60;;;;;;;6.87;100.00;100414.84;4980717;58;1138748;-71
2023/01/12 01:04:53;;;;;;;15.88;8.60;;;;;;;6.88;100.00;100414.72;4960847;58;1140934;-69
2023/01/12 01:09:59;;;;;;;12.47;7.83;;;;;;;6.88;100.00;100427.87;4976929;57;1140890;-70
2023/01/12 01:15:05;;;;;;;12.77;7.57;;;;;;;6.87;100.00;100424.05;5062552;57;1140925;-73
2023/01/12 01:20:12;;;;;;;14.17;6.67;;;;;;;6.86;100.00;100419.73;5006523;57;1140739;-70
2023/01/12 01:25:18;;;;;;;12.10;8.20;;;;;;;6.84;100.00;100416.35;5043072;57;1141004;-72
2023/01/12 01:30:24;;;;;;;13.38;7.15;;;;;;;6.82;100.00;100429.59;5062618;57;1141165;-71
2023/01/12 01:35:31;;;;;;;26.05;10.25;;;;;;;6.80;100.00;100424.05;5043092;57;1141287;-73
2023/01/12 01:40:39;;;;;;;15.17;7.90;;;;;;;6.76;100.00;100418.61;5042921;57;1142907;-71
2023/01/12 01:45:52;;;;;;;22.40;9.23;;;;;;;6.71;100.00;100416.30;5115562;56;1140857;-73
2023/01/12 01:51:02;;;;;;;15.50;8.67;;;;;;;6.66;100.00;100426.24;5042526;57;1140937;-73
2023/01/12 01:56:19;;;;;;;15.20;8.57;;;;;;;6.60;100.00;100447.17;5127115;56;1140840;-72
2023/01/12 02:01:26;;;;;;;13.37;6.87;;;;;;;6.56;100.00;100447.48;5147112;56;1140918;-69
2023/01/12 02:06:32;;;;;;;13.40;8.18;;;;;;;6.52;100.00;100448.13;5109997;56;1140913;-70
2023/01/12 02:17:30;;;;;;;20.10;9.10;;;;;;;6.42;100.00;100449.61;5042676;57;1140884;-70
2023/01/12 02:22:59;;;;;;;17.43;7.93;;;;;;;6.35;100.00;100442.59;5022293;57;1140897;-69
2023/01/12 02:28:38;;;;;;;15.97;8.23;;;;;;;6.31;100.00;100452.06;5063003;57;1140747;-71
2023/01/12 02:34:09;;;;;;;15.03;8.07;;;;;;;6.30;100.00;100441.17;5042890;57;1140840;-73
2023/01/12 02:39:38;;;;;;;13.07;8.73;;;;;;;6.29;100.00;100441.64;5112889;56;1140931;-71
2023/01/12 02:45:21;;;;;;;17.80;10.10;;;;;;;6.29;100.00;100446.89;5127955;56;1140962;-72
2023/01/12 02:50:37;;;;;;;14.20;9.25;;;;;;;6.28;100.00;100456.18;5147576;56;1143035;-72
2023/01/12 02:55:44;;;;;;;13.77;8.73;;;;;;;6.27;100.00;100450.55;5127777;56;1141132;-70
2023/01/12 03:00:54;;;;;;;18.80;9.77;;;;;;;6.27;100.00;100440.05;5124901;56;1140795;-70
2023/01/12 03:06:01;;;;;;;19.67;10.03;;;;;;;6.24;100.00;100440.26;5064751;56;1141073;-69
2023/01/12 03:11:16;;;;;;;14.23;9.80;;;;;;;6.23;100.00;100433.31;4963094;58;1142821;-72
2023/01/12 03:16:32;;;;;;;16.10;9.50;;;;;;;6.20;100.00;100436.97;4962609;58;1141042;-72
2023/01/12 03:21:48;;;;;;;13.87;8.60;;;;;;;6.17;100.00;100438.92;4962761;58;1140833;-69
2023/01/12 03:27:01;;;;;;;16.67;10.27;;;;;;;6.16;100.00;100443.80;4982606;58;1140834;-71
2023/01/12 03:32:07;;;;;;;12.70;9.30;;;;;;;6.15;100.00;100427.66;4963111;58;1142925;-67
2023/01/12 03:37:36;;;;;;;21.97;11.20;;;;;;;6.13;100.00;100434.32;4997352;57;1140773;-70
2023/01/12 03:43:01;;;;;;;22.53;11.33;;;;;;;6.06;100.00;100417.73;5046347;56;1143030;-70
2023/01/12 03:48:23;;;;;;;16.27;10.83;;;;;;;6.03;100.00;100425.33;5142008;56;1143142;-71
2023/01/12 03:53:32;;;;;;;20.62;9.18;;;;;;;6.02;100.00;100424.95;5122073;56;1143012;-69
2023/01/12 03:58:38;;;;;;;17.43;10.03;;;;;;;6.01;100.00;100420.63;5108923;56;1140954;-71
2023/01/12 04:03:44;;;;;;;20.30;10.30;;;;;;;5.98;100.00;100420.80;5044969;56;1143151;-67
2023/01/12 04:08:50;;;;;;;14.50;9.00;;;;;;;5.95;100.00;100426.27;5009860;57;1142911;-68
2023/01/12 04:13:56;;;;;;;19.67;8.97;;;;;;;5.92;100.00;100425.98;4963192;57;1141061;-70
2023/01/12 04:19:02;;;;;;;15.17;10.40;;;;;;;5.90;100.00;100421.75;4963109;57;1141083;-69
2023/01/12 04:24:08;;;;;;;17.20;10.27;;;;;;;5.86;100.00;100430.70;5059021;57;1143098;-69
2023/01/12 04:29:14;;;;;;;22.53;9.00;;;;;;;5.81;100.00;100428.80;5044738;57;1142917;-71
2023/01/12 04:34:20;;;;;;;20.50;9.00;;;;;;;5.77;100.00;100437.35;5048471;56;1140761;-70
2023/01/12 04:39:26;;;;;;;12.90;7.17;;;;;;;5.76;100.00;100427.79;4983448;56;1148932;-69
2023/01/12 04:44:33;;;;;;;17.37;8.73;;;;;;;5.76;100.00;100421.70;4982298;55;1141022;-69
2023/01/12 04:49:39;;;;;;;12.93;7.10;;;;;;;5.75;100.00;100423.94;5044625;57;1140930;-74
2023/01/12 04:54:45;;;;;;;12.77;7.07;;;;;;;5.71;100.00;100423.27;5044910;57;1140994;-72
2023/01/12 04:59:51;;;;;;;18.60;7.37;;;;;;;5.67;100.00;100421.75;5064912;57;1140792;-71
2023/01/12 05:04:57;;;;;;;9.90;6.83;;;;;;;5.62;100.00;100419.42;5090876;56;1140955;-69
2023/01/12 05:15:26;;;;;;;17.73;6.03;;;;;;;5.57;100.00;100426.70;5062397;57;1141198;-68
2023/01/12 05:20:31;;;;;;;12.70;6.07;;;;;;;5.56;100.00;100435.97;5068767;56;1140857;-70
2023/01/12 05:25:37;;;;;;;11.95;5.47;;;;;;;5.53;100.00;100430.43;5086249;56;1140936;-70
2023/01/12 05:30:43;;;;;;;16.47;5.77;;;;;;;5.51;100.00;100433.61;5146261;56;1140830;-69
2023/01/12 05:35:49;;;;;;;11.77;4.17;;;;;;;5.51;100.00;100425.73;5115123;56;1140806;-70
2023/01/12 05:40:57;;;;;;;10.73;4.97;;;;;;;5.48;100.00;100428.56;5042422;56;1140746;-67
2023/01/12 05:46:06;;;;;;;10.57;4.83;;;;;;;5.44;100.00;100423.11;5122203;56;1140973;-75
2023/01/12 05:51:13;;;;;;;8.37;4.13;;;;;;;5.41;100.00;100425.91;5126560;56;1140964;-71
2023/01/12 05:56:25;;;;;;;13.27;4.20;;;;;;;5.38;100.00;100427.85;5042369;57;1136592;-70
2023/01/12 06:01:32;;;;;;;14.00;4.87;;;;;;;5.38;100.00;100409.03;5136443;56;1140882;-72
2023/01/12 06:06:38;;;;;;;10.28;4.37;;;;;;;5.37;100.00;100420.45;5082257;56;1140850;-74
2023/01/12 06:17:08;;;;;;;7.93;4.13;;;;;;;5.38;100.00;100402.47;4990466;56;1140919;-69
2023/01/12 06:22:14;;;;;;;9.93;4.40;;;;;;;5.38;100.00;100397.69;4982483;57;1138783;-68
2023/01/12 06:27:20;;;;;;;12.40;4.10;;;;;;;5.37;100.00;100392.06;4962997;57;1138744;-66
2023/01/12 06:32:25;;;;;;;15.23;4.27;;;;;;;5.37;100.00;100394.69;5040493;56;1140966;-69
2023/01/12 06:37:32;;;;;;;10.56;3.82;;;;;;;5.35;100.00;100396.09;5021120;56;1141007;-72
2023/01/12 06:42:41;;;;;;;18.03;3.30;;;;;;;5.34;100.00;100400.98;4970910;57;1140954;-70
2023/01/12 06:47:50;;;;;;;16.40;3.80;;;;;;;5.34;100.00;100411.94;5042968;56;1140814;-70
2023/01/12 06:52:59;;;;;;;9.63;3.07;;;;;;;5.36;100.00;100389.91;5044927;56;1140929;-68
2023/01/12 06:58:05;;;;;;;8.60;2.63;;;;;;;5.36;100.00;100389.91;5064808;56;1138821;-69
2023/01/12 07:03:20;;;;;;;9.40;2.43;;;;;;;5.34;100.00;100391.80;5016987;56;1138728;-69
2023/01/12 07:08:25;;;;;;;9.73;3.63;;;;;;;5.35;100.00;100388.22;5073071;56;1138813;-72
2023/01/12 07:13:32;;;;;;;9.75;2.95;;;;;;;5.35;100.00;100388.22;5131476;56;1136657;-72
2023/01/12 07:18:39;;;;;;;10.87;2.63;;;;;;;5.39;100.00;100379.72;5110637;56;1136652;-71
2023/01/12 07:23:44;;;;;;;6.70;2.27;;;;;;;5.43;100.00;100389.10;5078791;56;1140706;-73
2023/01/12 07:28:50;;;;;;;5.07;3.17;;;;;;;5.46;100.00;100395.48;5054164;56;1137122;-72
2023/01/12 07:33:56;;;;;;;11.70;3.73;;;;;;;5.47;100.00;100374.42;5062344;56;1136639;-70
2023/01/12 07:39:01;;;;;;;9.87;2.30;;;;;;;5.50;100.00;100379.45;5107803;56;1138902;-73
2023/01/12 07:44:07;;;;;;;11.67;2.67;;;;;;;5.52;100.00;100378.06;5115076;56;1139089;-71
2023/01/12 07:49:14;;;;;;;14.17;4.10;;;;;;;5.50;100.00;100384.70;5147137;56;1138705;-71
2023/01/12 07:54:20;;;;;;;8.07;2.90;;;;;;;5.52;100.00;100385.92;5127092;56;1138642;-73
2023/01/12 07:59:26;;;;;;;9.57;3.47;;;;;;;5.52;100.00;100382.84;5114939;56;1136584;-68
2023/01/12 08:04:32;;;;;;;9.83;3.17;;;;;;;5.58;100.00;100386.89;5098374;56;1136792;-71
2023/01/12 08:09:38;;;;;;;4.67;2.62;;;;;;;5.62;100.00;100375.29;5078784;56;1139032;-73
2023/01/12 08:14:44;;;;;;;13.50;2.90;;;;;;;5.64;100.00;100389.16;5100989;56;1136763;-72
2023/01/12 08:19:59;;;;;;;14.83;3.73;;;;;;;5.69;100.00;100378.38;5062439;56;1141056;-71
2023/01/12 08:25:12;;;;;;;8.87;3.30;;;;;;;5.71;100.00;100385.22;5119573;56;1140820;-71
2023/01/12 08:30:21;;;;;;;8.35;3.27;;;;;;;5.76;100.00;100383.17;5079104;56;1138646;-70
2023/01/12 08:35:30;;;;;;;11.37;3.23;;;;;;;5.79;100.00;100376.44;5065717;56;1136674;-74
2023/01/12 08:46:06;;;;;;;21.12;8.40;;;;;;;5.86;100.00;100379.52;5100311;56;1141093;-73
2023/01/12 08:51:08;;;;;;;14.63;5.60;;;;;;;5.90;100.00;100376.66;5071902;56;1138860;-73
2023/01/12 08:56:14;;;;;;;36.27;10.77;;;;;;;5.95;100.00;100360.17;5080719;56;1141103;-73
2023/01/12 09:01:20;;;;;;;14.07;4.17;;;;;;;5.95;100.00;100360.17;5086688;56;1142960;-71
2023/01/12 09:06:30;;;;;;;11.67;4.37;;;;;;;6.04;100.00;100369.26;5103322;56;1140916;-69
2023/01/12 09:11:38;;;;;;;11.78;3.90;;;;;;;6.08;100.00;100371.23;5044644;56;1140811;-70
2023/01/12 09:16:44;;;;;;;11.83;3.20;;;;;;;6.11;100.00;100360.05;5039450;56;1141055;-65
2023/01/12 09:21:50;;;;;;;13.80;4.30;;;;;;;6.16;100.00;100363.25;5063031;56;1141360;-68
2023/01/12 09:26:56;;;;;;;11.13;3.80;;;;;;;6.20;100.00;100360.81;5060132;56;1140973;-71
2023/01/12 09:32:02;;;;;;;11.90;4.40;;;;;;;6.24;100.00;100356.22;5038218;56;1141347;-70
2023/01/12 09:37:08;;;;;;;23.77;5.67;;;;;;;6.30;100.00;100346.16;5089036;56;1140726;-69
2023/01/12 09:48:01;;;;;;;8.53;2.20;;;;;;;6.42;100.00;100335.34;5038672;56;1142861;-72
2023/01/12 09:53:25;;;;;;;23.43;5.70;;;;;;;6.47;100.00;100332.44;5076933;56;1138714;-67
2023/01/12 09:59:19;;;;;;;15.10;3.92;;;;;;;6.53;100.00;100335.52;5102060;56;1140968;-68
2023/01/12 10:04:26;;;;;;;16.05;4.58;;;;;;;6.68;100.00;100325.81;5081633;56;1140876;-68
2023/01/12 10:09:33;;;;;;;17.98;6.00;;;;;;;6.83;100.00;100329.23;5066743;56;1141017;-71
2023/01/12 10:15:06;;;;;;;22.17;5.37;;;;;;;6.93;100.00;100322.42;5016415;55;1140991;-68
2023/01/12 10:20:28;;;;;;;7.00;2.47;;;;;;;6.99;100.00;100300.53;5101671;56;1140903;-69
2023/01/12 10:25:53;;;;;;;26.35;8.85;;;;;;;7.09;100.00;100295.96;5090199;56;1138854;-72
2023/01/12 10:31:00;;;;;;;10.10;2.93;;;;;;;7.15;100.00;100281.09;5038602;55;1140727;-72
2023/01/12 10:36:12;;;;;;;5.90;2.10;;;;;;;7.20;100.00;100269.77;5076787;56;1140981;-72
2023/01/12 10:41:25;;;;;;;10.90;2.80;;;;;;;7.26;100.00;100261.48;5039630;56;1138975;-66
2023/01/12 10:46:34;;;;;;;12.70;4.87;;;;;;;7.33;100.00;100275.41;5083955;56;1140938;-69
2023/01/12 10:52:00;;;;;;;9.98;3.02;;;;;;;7.40;100.00;100262.22;5054487;56;1141029;-75
2023/01/12 10:57:22;;;;;;;4.03;2.10;;;;;;;7.53;100.00;100259.58;5097943;56;1138907;-70
2023/01/12 11:02:30;;;;;;;4.97;2.67;;;;;;;7.65;100.00;100252.14;5058173;56;1139020;-69
2023/01/12 11:07:38;;;;;;;11.12;2.12;;;;;;;7.75;100.00;100241.36;5038469;56;1138718;-70
2023/01/12 11:12:47;;;;;;;6.60;3.22;;;;;;;7.86;100.00;100239.28;5057513;56;1141031;-69
2023/01/12 11:18:19;;;;;;;9.77;2.50;;;;;;;7.94;100.00;100229.06;5061535;56;1138857;-68
2023/01/12 11:23:47;;;;;;;13.63;2.97;;;;;;;8.07;100.00;100224.59;5042143;56;1138892;-71
2023/01/12 11:28:56;;;;;;;13.25;3.87;;;;;;;8.24;100.00;100206.73;5042233;56;1140904;-77
2023/01/12 11:34:12;;;;;;;12.60;2.73;;;;;;;8.42;100.00;100229.95;5066892;56;1140764;-76
2023/01/12 11:39:26;;;;;;;13.77;4.13;;;;;;;8.48;100.00;100215.97;5061834;56;1140847;-73
2023/01/12 11:44:55;;;;;;;25.85;7.10;;;;;;;8.48;100.00;100197.05;5057137;56;1140924;-79
2023/01/12 11:50:23;;;;;;;12.70;3.17;;;;;;;8.52;100.00;100192.39;5027270;56;1140792;-72
2023/01/12 11:55:58;;;;;;;8.70;2.60;;;;;;;8.49;100.00;100192.14;5079515;56;1148883;-71
2023/01/12 12:01:31;;;;;;;31.77;8.40;;;;;;;8.49;100.00;100178.12;5012655;55;1138825;-74
2023/01/12 12:07:07;;;;;;;29.65;7.08;;;;;;;8.54;100.00;100175.52;5059145;56;1140857;-77
2023/01/12 12:12:41;;;;;;;22.50;6.23;;;;;;;8.59;100.00;100158.86;5041386;56;1140869;-74
2023/01/12 12:18:21;;;;;;;25.02;6.28;;;;;;;8.76;100.00;100158.91;5083284;56;1140980;-81
2023/01/12 12:23:55;;;;;;;18.17;6.60;;;;;;;8.91;100.00;100146.35;5092656;56;1140838;-76
2023/01/12 12:29:24;;;;;;;;;;;;;;;9.09;100.00;100121.20;5058327;56;1140865;-70
2023/01/12 12:34:43;;;;;;;23.87;7.20;;;;;;;9.08;100.00;100110.28;4997838;56;975982;-70
2023/01/12 12:40:02;;;;;;;26.37;6.77;;;;;;;9.09;100.00;100102.25;5055366;56;1138694;-70
2023/01/12 12:45:32;;;;;;;16.73;4.37;;;;;;;9.01;100.00;100101.99;5112934;56;1141239;-77
2023/01/12 12:51:03;;;;;;;12.97;3.90;;;;;;;8.96;100.00;100102.85;5037278;56;1140950;-77
2023/01/12 12:56:18;;;;;;;26.52;9.35;;;;;;;9.05;100.00;100096.02;5065303;56;1140975;-72
2023/01/12 13:01:28;;;;;;;8.65;3.12;;;;;;;9.06;100.00;100095.05;5105833;56;1140788;-74
2023/01/12 13:06:40;;;;;;;29.73;7.60;;;;;;;9.00;100.00;100094.23;5073008;56;1138844;-74
2023/01/12 13:12:05;;;;;;;16.32;5.30;;;;;;;8.95;100.00;100093.26;5045745;56;1140917;-74
2023/01/12 13:17:25;;;;;;;30.30;9.50;;;;;;;8.96;100.00;100076.48;5089094;56;1140899;-71
2023/01/12 13:22:47;;;;;;;22.70;7.77;;;;;;;8.96;100.00;100078.28;5061834;56;1147451;-78
2023/01/12 13:28:00;;;;;;;22.57;8.80;;;;;;;8.98;100.00;100064.49;5052946;56;1171033;-79
2023/01/12 13:33:22;;;;;;;13.23;4.13;;;;;;;9.02;100.00;100068.55;5058397;56;1140836;-76
2023/01/12 13:38:55;;;;;;;23.07;5.70;;;;;;;9.02;100.00;100077.78;5072699;56;1140752;-73
2023/01/12 13:44:02;;;;;;;14.80;4.97;;;;;;;9.03;100.00;100066.27;5053731;56;1141055;-71
2023/01/12 13:49:27;;;;;;;15.43;3.83;;;;;;;9.02;100.00;100053.56;5057591;56;1140883;-77
2023/01/12 13:54:34;;;;;;;8.90;3.53;;;;;;;9.01;100.00;100053.20;5068321;56;1141015;-75
2023/01/12 13:59:40;;;;;;;14.53;3.67;;;;;;;9.08;100.00;100059.69;5089214;56;1138792;-76
2023/01/12 14:05:05;;;;;;;12.87;5.70;;;;;;;9.18;100.00;100048.75;5041736;56;1140941;-74
2023/01/12 14:10:33;;;;;;;14.25;4.45;;;;;;;9.40;100.00;100050.53;5052071;56;1140947;-74
2023/01/12 14:21:23;;;;;;;35.67;9.70;;;;;;;9.29;100.00;100050.56;5065231;56;1140786;-74
2023/01/12 14:26:30;;;;;;;32.43;10.73;;;;;;;9.20;100.00;100043.36;5058014;56;1140825;-74
2023/01/12 14:31:43;;;;;;;17.70;5.90;;;;;;;9.13;100.00;100050.09;5045156;56;1143033;-76
2023/01/12 14:36:49;;;;;;;11.90;5.27;;;;;;;9.07;100.00;100043.98;5062293;56;1140757;-69
2023/01/12 14:47:29;;;;;;;12.77;4.63;;;;;;;9.02;100.00;100033.78;5061375;56;1140956;-72
2023/01/12 14:52:35;;;;;;;13.73;4.63;;;;;;;9.01;100.00;100022.87;5075139;56;1140979;-73
2023/01/12 14:57:42;;;;;;;10.93;3.53;;;;;;;9.02;100.00;100024.55;5042746;56;1140970;-76
2023/01/12 15:02:55;;;;;;;17.17;4.15;;;;;;;9.02;100.00;100024.55;5062513;56;1140927;-71
2023/01/12 15:08:08;;;;;;;8.93;4.30;;;;;;;9.02;100.00;100016.63;5039911;56;1140809;-76
2023/01/12 15:13:32;;;;;;;12.00;4.10;;;;;;;9.03;100.00;100014.84;5030672;56;1138641;-73
2023/01/12 15:29:23;;;;;;;19.40;5.53;;;;;;;8.96;100.00;100023.73;5062351;56;1136674;-80
2023/01/12 15:34:32;;;;;;;9.77;4.00;;;;;;;8.95;100.00;100019.41;5045301;56;1140948;-76
2023/01/12 15:39:38;;;;;;;13.58;4.22;;;;;;;8.94;100.00;100024.33;5063344;56;1197492;-78
2023/01/12 15:44:45;;;;;;;9.45;3.20;;;;;;;8.91;100.00;100025.88;5109928;56;1240309;-80
2023/01/12 15:49:52;;;;;;;23.42;7.90;;;;;;;8.89;100.00;100022.52;5127425;56;1138768;-75
2023/01/12 15:54:57;;;;;;;13.00;5.40;;;;;;;8.88;100.00;100009.45;5127244;56;1140781;-73
2023/01/12 16:00:04;;;;;;;23.70;7.90;;;;;;;8.85;100.00;100005.77;5146284;56;1140989;-79
2023/01/12 16:05:12;;;;;;;14.10;3.50;;;;;;;8.85;100.00;100010.56;5109524;56;1167461;-79
2023/01/12 16:10:19;;;;;;;18.03;6.50;;;;;;;8.83;100.00;99998.45;5064816;56;1219016;-82
2023/01/12 16:15:28;;;;;;;17.03;4.00;;;;;;;8.83;100.00;100015.11;5062686;57;1138745;-76
2023/01/12 16:20:33;;;;;;;10.27;3.73;;;;;;;8.83;100.00;100008.99;5043249;56;1140981;-78
2023/01/12 16:25:39;;;;;;;14.27;4.60;;;;;;;8.79;100.00;100008.39;5070242;56;1141049;-73
2023/01/12 16:30:47;;;;;;;22.85;7.15;;;;;;;8.76;100.00;100014.73;5121713;56;1140958;-75
2023/01/12 16:35:55;;;;;;;23.93;9.23;;;;;;;8.67;100.00;100003.59;5104549;56;1141013;-71
2023/01/12 16:41:17;;;;;;;17.97;6.87;;;;;;;8.62;100.00;99993.88;5168192;56;1140861;-71
2023/01/12 16:46:23;;;;;;;8.28;3.58;;;;;;;8.62;100.00;99999.16;5147035;56;1256831;-77
2023/01/12 16:51:28;;;;;;;23.73;6.60;;;;;;;8.58;100.00;99997.70;5119345;55;1242951;-74
2023/01/12 16:56:34;;;;;;;9.00;3.80;;;;;;;8.56;100.00;100000.94;5147955;56;1241012;-74
2023/01/12 17:01:40;;;;;;;8.90;3.30;;;;;;;8.57;100.00;99992.08;5171488;56;1138730;-70
2023/01/12 17:06:46;;;;;;;11.03;3.53;;;;;;;8.57;100.00;99999.14;5129624;56;1137379;-78
2023/01/12 17:11:53;;;;;;;23.98;8.30;;;;;;;8.54;100.00;100006.83;5023772;57;1177960;-78
2023/01/12 17:17:02;;;;;;;14.27;4.40;;;;;;;8.53;100.00;99985.38;5021515;57;1181521;-79
2023/01/12 17:22:08;;;;;;;17.73;6.35;;;;;;;8.54;100.00;99990.18;5055245;56;1138731;-72
2023/01/12 17:27:14;;;;;;;22.90;7.73;;;;;;;8.53;100.00;99988.02;5035947;56;1174373;-73
2023/01/12 17:32:20;;;;;;;15.87;4.90;;;;;;;8.52;100.00;99983.70;5036440;57;1171348;-71
2023/01/12 17:37:27;;;;;;;14.53;5.00;;;;;;;8.51;100.00;99979.87;5049337;57;1138744;-73
2023/01/12 17:47:57;;;;;;;15.70;6.27;;;;;;;8.53;100.00;99974.00;4930783;57;1138861;-69
2023/01/12 17:53:07;;;;;;;15.37;6.27;;;;;;;8.53;100.00;99972.20;5008632;57;1139037;-76
2023/01/12 17:58:11;;;;;;;12.70;4.83;;;;;;;8.52;100.00;99971.00;4996162;57;1138895;-76
2023/01/12 18:03:17;;;;;;;9.23;4.77;;;;;;;8.50;100.00;99975.55;4989683;57;1138824;-71
2023/01/12 18:08:24;;;;;;;19.50;9.60;;;;;;;8.52;100.00;99965.73;5015168;57;1136652;-65
2023/01/12 18:13:31;;;;;;;16.90;8.30;;;;;;;8.50;100.00;99944.77;4995177;57;1139004;-72
2023/01/12 18:18:38;;;;;;;10.43;2.77;;;;;;;8.50;100.00;99944.77;4958509;57;1138805;-77
2023/01/12 18:23:44;;;;;;;17.85;6.97;;;;;;;8.49;100.00;99954.95;4994745;57;1138820;-75
2023/01/12 18:28:52;;;;;;;30.57;11.70;;;;;;;8.48;100.00;99962.48;5024092;56;1139103;-77
2023/01/12 18:34:03;;;;;;;8.77;3.47;;;;;;;8.50;100.00;99951.36;5104722;55;1140798;-78
2023/01/12 18:39:19;;;;;;;9.97;3.90;;;;;;;8.49;100.00;99954.95;5081246;55;1136709;-74
2023/01/12 18:44:24;;;;;;;11.80;3.83;;;;;;;8.47;100.00;99951.59;5061905;55;1136639;-76
2023/01/12 18:49:34;;;;;;;8.70;5.63;;;;;;;8.48;100.00;99959.02;5058688;56;1138875;-78
2023/01/12 18:59:52;;;;;;;6.75;3.12;;;;;;;8.46;100.00;99957.34;5057666;56;1136699;-72
2023/01/12 19:10:21;;;;;;;14.18;4.92;;;;;;;8.44;100.00;99964.52;4993114;56;1140826;-77
2023/01/12 19:20:50;;;;;;;14.18;5.97;;;;;;;8.43;100.00;99958.89;5022891;56;1138874;-73
2023/01/12 19:31:25;;;;;;;8.07;3.93;;;;;;;8.43;100.00;99959.36;5042568;56;1136946;-77
2023/01/12 19:36:31;;;;;;;17.30;6.47;;;;;;;8.45;100.00;99962.24;5053650;55;1136820;-76
2023/01/12 19:47:00;;;;;;;9.05;4.00;;;;;;;8.48;100.00;99954.58;5058858;56;1138714;-74
2023/01/12 19:52:06;;;;;;;14.63;4.93;;;;;;;8.49;100.00;99962.85;5051833;55;1136620;-84
2023/01/12 19:57:12;;;;;;;5.90;2.77;;;;;;;8.50;100.00;99957.10;5052076;56;1138644;-73
2023/01/12 20:02:18;;;;;;;19.17;6.93;;;;;;;8.51;100.00;99953.52;5106604;55;1136749;-75
2023/01/12 20:07:24;;;;;;;19.77;5.00;;;;;;;8.50;100.00;99952.67;5019865;56;1138786;-78
2023/01/12 20:12:31;;;;;;;23.57;7.67;;;;;;;8.52;100.00;99943.33;5045555;56;1138754;-76
2023/01/12 20:17:37;;;;;;;22.67;6.73;;;;;;;8.54;100.00;99941.42;5075239;56;1138925;-72
2023/01/12 20:22:45;;;;;;;12.13;4.35;;;;;;;8.55;100.00;99936.03;5153691;55;1138862;-75
2023/01/12 20:27:52;;;;;;;12.13;5.17;;;;;;;8.54;100.00;99936.15;5170582;55;1138849;-77
2023/01/12 20:32:59;;;;;;;20.47;6.60;;;;;;;8.54;100.00;99926.45;5169354;55;1138758;-77
2023/01/12 20:38:12;;;;;;;16.37;6.47;;;;;;;8.56;100.00;99935.52;5112364;56;1139046;-74
2023/01/12 20:43:14;;;;;;;9.83;3.17;;;;;;;8.55;100.00;99939.14;5055927;56;1139133;-76
2023/01/12 20:48:20;;;;;;;12.10;3.50;;;;;;;8.57;100.00;99943.79;4936400;57;1136773;-71
2023/01/12 20:53:30;;;;;;;10.17;4.50;;;;;;;8.57;100.00;99944.62;5142423;56;1138813;-78
2023/01/12 20:58:34;;;;;;;7.70;3.33;;;;;;;8.58;100.00;99938.41;5077077;55;1154829;-77
2023/01/12 21:03:39;;;;;;;8.17;2.97;;;;;;;8.58;100.00;99931.81;5080841;55;1136659;-74
2023/01/12 21:08:47;;;;;;;4.75;2.33;;;;;;;8.58;100.00;99934.92;5107662;55;1136710;-75
2023/01/12 21:13:53;;;;;;;9.23;3.10;;;;;;;8.58;100.00;99945.47;5059510;56;1136645;-72
2023/01/12 21:19:01;;;;;;;6.70;2.83;;;;;;;8.58;100.00;99942.35;5066285;56;1136595;-79
2023/01/12 21:24:08;;;;;;;7.08;2.90;;;;;;;8.58;100.00;99932.29;5053248;56;1136795;-72
2023/01/12 21:29:16;;;;;;;5.63;2.87;;;;;;;8.54;100.00;99923.81;5102324;56;1136898;-73
2023/01/12 21:34:22;;;;;;;3.60;2.37;;;;;;;8.54;100.00;99923.81;5086110;55;1136646;-78
2023/01/12 21:39:28;;;;;;;6.37;2.70;;;;;;;8.60;100.00;99922.47;5006440;55;1136831;-81
2023/01/12 21:44:35;;;;;;;9.30;2.70;;;;;;;8.57;100.00;99916.95;5072264;56;1136787;-73
2023/01/12 21:49:40;;;;;;;4.93;2.50;;;;;;;8.54;100.00;99917.22;5148610;56;1136867;-73
2023/01/12 21:54:46;;;;;;;8.53;3.20;;;;;;;8.52;100.00;99923.09;5000920;56;1136844;-79
2023/01/12 21:59:52;;;;;;;11.25;4.92;;;;;;;8.52;100.00;99919.13;5136833;56;1136831;-72
2023/01/12 22:04:58;;;;;;;4.77;2.30;;;;;;;8.52;100.00;99923.56;5156348;57;1138965;-75
2023/01/12 22:10:19;;;;;;;3.23;1.90;;;;;;;8.51;100.00;99925.36;5061919;57;1136624;-74
2023/01/12 22:15:28;;;;;;;6.87;2.60;;;;;;;8.53;100.00;99919.97;5053149;57;1136578;-73
2023/01/12 22:20:37;;;;;;;10.33;4.20;;;;;;;8.55;100.00;99909.67;5113622;56;1136930;-74
2023/01/12 22:25:43;;;;;;;4.70;2.83;;;;;;;8.55;100.00;99916.27;5124166;56;1139042;-78
2023/01/12 22:30:50;;;;;;;4.33;2.60;;;;;;;8.46;100.00;99915.66;5123560;56;1136806;-81
2023/01/12 22:35:55;;;;;;;8.33;3.73;;;;;;;8.39;100.00;99914.47;5093821;57;1136958;-77
2023/01/12 22:41:06;;;;;;;7.17;3.13;;;;;;;8.28;100.00;99912.61;5087699;56;1136869;-75
2023/01/12 22:46:15;;;;;;;10.03;3.10;;;;;;;8.19;100.00;99912.03;5000839;57;1136667;-73
2023/01/12 22:51:26;;;;;;;8.97;4.67;;;;;;;8.11;100.00;99910.45;5034628;57;1138783;-77
2023/01/12 22:56:32;;;;;;;8.27;3.73;;;;;;;8.01;100.00;99903.74;5063396;57;1137147;-73
2023/01/12 23:01:37;;;;;;;5.27;2.50;;;;;;;7.96;100.00;99896.66;5059250;57;1136964;-77
2023/01/12 23:06:43;;;;;;;6.33;3.37;;;;;;;7.93;100.00;99894.77;5059574;57;1136908;-74
2023/01/12 23:11:49;;;;;;;8.30;3.37;;;;;;;7.88;100.00;99890.32;5075749;57;1137136;-78
2023/01/12 23:16:55;;;;;;;8.70;3.27;;;;;;;7.85;100.00;99889.23;5067109;57;1136682;-74
2023/01/12 23:22:02;;;;;;;11.10;3.43;;;;;;;7.82;100.00;99883.72;4996483;57;1136875;-79
2023/01/12 23:27:07;;;;;;;4.83;2.90;;;;;;;7.79;100.00;99885.30;4996277;58;1139012;-79
2023/01/12 23:32:15;;;;;;;6.60;3.63;;;;;;;7.80;100.00;99879.52;4981923;57;1136694;-72
2023/01/12 23:37:21;;;;;;;6.70;4.10;;;;;;;7.80;100.00;99878.20;5108577;56;1136884;-74
2023/01/12 23:42:27;;;;;;;12.60;3.00;;;;;;;7.78;100.00;99867.81;5227808;56;1136824;-79
2023/01/12 23:47:33;;;;;;;8.10;3.30;;;;;;;7.76;100.00;99864.46;5001516;56;1191149;-81
2023/01/12 23:52:39;;;;;;;3.57;2.23;;;;;;;7.76;100.00;99863.98;5072194;56;1136625;-75
2023/01/12 23:57:48;;;;;;;4.37;3.00;;;;;;;7.75;100.00;99865.41;5145104;56;1137113;-81
